sensor_id;sensor_type;location;lat;lon;timestamp;pressure;altitude;pressure_sealevel;temperature;humidity
62057;BME280;48016;50.284;18.860;2023-08-20T00:01:07;98513.67;;;21.14;83.26
62057;BME280;48016;50.284;18.860;2023-08-20T00:03:50;98513.41;;;21.12;83.44
62057;BME280;48016;50.284;18.860;2023-08-20T00:06:16;98515.27;;;21.10;83.36
62057;BME280;48016;50.284;18.860;2023-08-20T00:08:42;98516.22;;;21.08;83.46
62057;BME280;48016;50.284;18.860;2023-08-20T00:11:08;98512.73;;;21.05;83.46
62057;BME280;48016;50.284;18.860;2023-08-20T00:13:35;98510.95;;;21.04;83.51
62057;BME280;48016;50.284;18.860;2023-08-20T00:16:01;98511.66;;;21.02;83.57
62057;BME280;48016;50.284;18.860;2023-08-20T00:18:27;98512.98;;;21.00;83.65
62057;BME280;48016;50.284;18.860;2023-08-20T00:20:54;98511.77;;;20.98;83.76
62057;BME280;48016;50.284;18.860;2023-08-20T00:23:21;98509.02;;;20.96;83.86
62057;BME280;48016;50.284;18.860;2023-08-20T00:25:47;98510.22;;;20.95;83.81
62057;BME280;48016;50.284;18.860;2023-08-20T00:28:13;98507.41;;;20.93;83.92
62057;BME280;48016;50.284;18.860;2023-08-20T00:30:39;98507.39;;;20.92;84.00
62057;BME280;48016;50.284;18.860;2023-08-20T00:33:05;98503.38;;;20.90;84.04
62057;BME280;48016;50.284;18.860;2023-08-20T00:35:31;98501.33;;;20.88;84.21
62057;BME280;48016;50.284;18.860;2023-08-20T00:37:57;98499.06;;;20.87;84.32
62057;BME280;48016;50.284;18.860;2023-08-20T00:40:23;98500.44;;;20.85;84.39
62057;BME280;48016;50.284;18.860;2023-08-20T00:42:49;98501.30;;;20.82;84.40
62057;BME280;48016;50.284;18.860;2023-08-20T00:45:15;98498.80;;;20.78;84.57
62057;BME280;48016;50.284;18.860;2023-08-20T00:47:44;98500.59;;;20.75;84.63
62057;BME280;48016;50.284;18.860;2023-08-20T00:50:11;98502.52;;;20.73;84.80
62057;BME280;48016;50.284;18.860;2023-08-20T00:52:37;98500.73;;;20.71;84.86
62057;BME280;48016;50.284;18.860;2023-08-20T00:55:08;98497.09;;;20.69;84.99
62057;BME280;48016;50.284;18.860;2023-08-20T00:57:38;98500.36;;;20.67;85.15
62057;BME280;48016;50.284;18.860;2023-08-20T01:00:05;98498.79;;;20.65;85.14
62057;BME280;48016;50.284;18.860;2023-08-20T01:02:40;98501.48;;;20.63;85.19
62057;BME280;48016;50.284;18.860;2023-08-20T01:05:08;98503.48;;;20.60;85.21
62057;BME280;48016;50.284;18.860;2023-08-20T01:07:57;98496.77;;;20.58;85.35
62057;BME280;48016;50.284;18.860;2023-08-20T01:10:41;98500.44;;;20.54;85.46
62057;BME280;48016;50.284;18.860;2023-08-20T01:13:09;98501.86;;;20.52;85.63
62057;BME280;48016;50.284;18.860;2023-08-20T01:15:35;98497.05;;;20.50;85.65
62057;BME280;48016;50.284;18.860;2023-08-20T01:18:02;98498.51;;;20.49;85.66
62057;BME280;48016;50.284;18.860;2023-08-20T01:20:31;98501.21;;;20.49;85.76
62057;BME280;48016;50.284;18.860;2023-08-20T01:26:35;98497.08;;;20.46;86.15
62057;BME280;48016;50.284;18.860;2023-08-20T01:29:06;98499.25;;;20.42;86.28
62057;BME280;48016;50.284;18.860;2023-08-20T01:31:32;98496.70;;;20.42;86.19
62057;BME280;48016;50.284;18.860;2023-08-20T01:33:59;98495.14;;;20.40;86.36
62057;BME280;48016;50.284;18.860;2023-08-20T01:36:26;98494.99;;;20.39;86.36
62057;BME280;48016;50.284;18.860;2023-08-20T01:38:52;98495.44;;;20.35;86.69
62057;BME280;48016;50.284;18.860;2023-08-20T01:41:17;98495.27;;;20.35;86.61
62057;BME280;48016;50.284;18.860;2023-08-20T01:43:43;98498.36;;;20.34;86.51
62057;BME280;48016;50.284;18.860;2023-08-20T01:46:09;98498.61;;;20.33;86.51
62057;BME280;48016;50.284;18.860;2023-08-20T01:48:35;98499.77;;;20.31;86.45
62057;BME280;48016;50.284;18.860;2023-08-20T01:51:01;98499.66;;;20.28;86.54
62057;BME280;48016;50.284;18.860;2023-08-20T01:53:28;98498.18;;;20.26;86.66
62057;BME280;48016;50.284;18.860;2023-08-20T01:55:53;98499.77;;;20.24;86.57
62057;BME280;48016;50.284;18.860;2023-08-20T01:58:19;98500.11;;;20.22;86.64
62057;BME280;48016;50.284;18.860;2023-08-20T02:00:45;98496.41;;;20.20;86.76
62057;BME280;48016;50.284;18.860;2023-08-20T02:03:11;98496.75;;;20.20;86.94
62057;BME280;48016;50.284;18.860;2023-08-20T02:05:37;98498.75;;;20.19;87.09
62057;BME280;48016;50.284;18.860;2023-08-20T02:08:04;98504.31;;;20.18;87.21
62057;BME280;48016;50.284;18.860;2023-08-20T02:10:29;98500.75;;;20.18;87.23
62057;BME280;48016;50.284;18.860;2023-08-20T02:12:55;98503.78;;;20.17;87.25
62057;BME280;48016;50.284;18.860;2023-08-20T02:15:21;98503.59;;;20.17;87.30
62057;BME280;48016;50.284;18.860;2023-08-20T02:17:47;98507.74;;;20.17;87.34
62057;BME280;48016;50.284;18.860;2023-08-20T02:20:13;98505.40;;;20.17;87.41
62057;BME280;48016;50.284;18.860;2023-08-20T02:22:39;98502.86;;;20.17;87.48
62057;BME280;48016;50.284;18.860;2023-08-20T02:25:05;98499.60;;;20.15;87.45
62057;BME280;48016;50.284;18.860;2023-08-20T02:27:32;98498.30;;;20.15;87.48
62057;BME280;48016;50.284;18.860;2023-08-20T02:29:58;98504.57;;;20.14;87.50
62057;BME280;48016;50.284;18.860;2023-08-20T02:32:24;98500.04;;;20.14;87.56
62057;BME280;48016;50.284;18.860;2023-08-20T02:34:51;98504.36;;;20.12;87.68
62057;BME280;48016;50.284;18.860;2023-08-20T02:37:17;98500.22;;;20.11;87.67
62057;BME280;48016;50.284;18.860;2023-08-20T02:39:43;98502.33;;;20.09;87.70
62057;BME280;48016;50.284;18.860;2023-08-20T02:42:09;98503.83;;;20.07;87.64
62057;BME280;48016;50.284;18.860;2023-08-20T02:44:35;98505.55;;;20.06;87.71
62057;BME280;48016;50.284;18.860;2023-08-20T02:47:00;98510.13;;;20.05;87.72
62057;BME280;48016;50.284;18.860;2023-08-20T02:49:26;98510.53;;;20.04;87.81
62057;BME280;48016;50.284;18.860;2023-08-20T02:51:52;98516.38;;;20.03;87.89
62057;BME280;48016;50.284;18.860;2023-08-20T02:54:18;98519.16;;;20.02;87.91
62057;BME280;48016;50.284;18.860;2023-08-20T02:56:44;98517.73;;;20.02;88.02
62057;BME280;48016;50.284;18.860;2023-08-20T02:59:10;98515.14;;;20.02;88.00
62057;BME280;48016;50.284;18.860;2023-08-20T03:01:36;98518.60;;;20.02;88.05
62057;BME280;48016;50.284;18.860;2023-08-20T03:04:02;98521.80;;;20.02;88.08
62057;BME280;48016;50.284;18.860;2023-08-20T03:06:28;98522.27;;;20.00;88.20
62057;BME280;48016;50.284;18.860;2023-08-20T03:08:54;98523.71;;;20.00;88.23
62057;BME280;48016;50.284;18.860;2023-08-20T03:11:20;98525.25;;;19.99;88.24
62057;BME280;48016;50.284;18.860;2023-08-20T03:13:46;98529.92;;;19.99;88.15
62057;BME280;48016;50.284;18.860;2023-08-20T03:16:12;98528.80;;;19.98;88.27
62057;BME280;48016;50.284;18.860;2023-08-20T03:18:37;98528.56;;;19.97;88.20
62057;BME280;48016;50.284;18.860;2023-08-20T03:21:03;98526.39;;;19.96;88.26
62057;BME280;48016;50.284;18.860;2023-08-20T03:23:29;98524.70;;;19.95;88.33
62057;BME280;48016;50.284;18.860;2023-08-20T03:25:58;98528.89;;;19.94;88.41
62057;BME280;48016;50.284;18.860;2023-08-20T03:28:25;98530.27;;;19.92;88.30
62057;BME280;48016;50.284;18.860;2023-08-20T03:30:51;98530.52;;;19.90;88.19
62057;BME280;48016;50.284;18.860;2023-08-20T03:33:16;98533.68;;;19.87;88.18
62057;BME280;48016;50.284;18.860;2023-08-20T03:35:43;98533.12;;;19.84;88.35
62057;BME280;48016;50.284;18.860;2023-08-20T03:38:08;98535.44;;;19.84;88.38
62057;BME280;48016;50.284;18.860;2023-08-20T03:40:34;98534.55;;;19.84;88.40
62057;BME280;48016;50.284;18.860;2023-08-20T03:43:00;98536.73;;;19.82;88.42
62057;BME280;48016;50.284;18.860;2023-08-20T03:45:26;98536.23;;;19.80;88.43
62057;BME280;48016;50.284;18.860;2023-08-20T03:47:52;98534.68;;;19.79;88.48
62057;BME280;48016;50.284;18.860;2023-08-20T03:50:18;98530.61;;;19.79;88.50
62057;BME280;48016;50.284;18.860;2023-08-20T03:52:44;98529.92;;;19.78;88.66
62057;BME280;48016;50.284;18.860;2023-08-20T03:55:10;98530.01;;;19.78;88.58
62057;BME280;48016;50.284;18.860;2023-08-20T03:57:36;98531.90;;;19.78;88.85
62057;BME280;48016;50.284;18.860;2023-08-20T04:00:02;98530.67;;;19.79;88.84
62057;BME280;48016;50.284;18.860;2023-08-20T04:02:29;98532.23;;;19.80;88.77
62057;BME280;48016;50.284;18.860;2023-08-20T04:04:57;98532.91;;;19.81;88.79
62057;BME280;48016;50.284;18.860;2023-08-20T04:07:23;98534.20;;;19.83;88.83
62057;BME280;48016;50.284;18.860;2023-08-20T04:09:49;98533.11;;;19.84;88.72
62057;BME280;48016;50.284;18.860;2023-08-20T04:12:15;98537.35;;;19.86;88.79
62057;BME280;48016;50.284;18.860;2023-08-20T04:14:41;98537.17;;;19.89;88.86
62057;BME280;48016;50.284;18.860;2023-08-20T04:17:06;98536.34;;;19.93;88.84
62057;BME280;48016;50.284;18.860;2023-08-20T04:19:32;98535.44;;;19.96;88.72
62057;BME280;48016;50.284;18.860;2023-08-20T04:21:58;98538.39;;;20.00;88.71
62057;BME280;48016;50.284;18.860;2023-08-20T04:24:24;98539.70;;;20.04;88.71
62057;BME280;48016;50.284;18.860;2023-08-20T04:26:50;98541.36;;;20.07;88.63
62057;BME280;48016;50.284;18.860;2023-08-20T04:29:16;98544.39;;;20.11;88.67
62057;BME280;48016;50.284;18.860;2023-08-20T04:31:42;98553.04;;;20.15;88.69
62057;BME280;48016;50.284;18.860;2023-08-20T04:34:08;98557.09;;;20.20;88.71
62057;BME280;48016;50.284;18.860;2023-08-20T04:36:33;98558.67;;;20.26;88.78
62057;BME280;48016;50.284;18.860;2023-08-20T04:38:59;98558.66;;;20.34;88.65
62057;BME280;48016;50.284;18.860;2023-08-20T04:41:25;98560.92;;;20.43;88.51
62057;BME280;48016;50.284;18.860;2023-08-20T04:43:52;98562.91;;;20.51;88.56
62057;BME280;48016;50.284;18.860;2023-08-20T04:46:17;98564.96;;;20.60;88.46
62057;BME280;48016;50.284;18.860;2023-08-20T04:48:43;98562.73;;;20.70;88.28
62057;BME280;48016;50.284;18.860;2023-08-20T04:51:09;98569.83;;;20.82;88.20
62057;BME280;48016;50.284;18.860;2023-08-20T04:53:36;98568.81;;;20.92;88.11
62057;BME280;48016;50.284;18.860;2023-08-20T04:56:02;98574.05;;;21.04;87.82
62057;BME280;48016;50.284;18.860;2023-08-20T04:58:28;98569.48;;;21.17;87.66
62057;BME280;48016;50.284;18.860;2023-08-20T05:00:54;98567.89;;;21.32;87.52
62057;BME280;48016;50.284;18.860;2023-08-20T05:03:20;98564.41;;;21.45;87.25
62057;BME280;48016;50.284;18.860;2023-08-20T05:05:49;98563.84;;;21.56;87.28
62057;BME280;48016;50.284;18.860;2023-08-20T05:08:16;98564.59;;;21.69;87.22
62057;BME280;48016;50.284;18.860;2023-08-20T05:10:42;98561.62;;;21.81;87.01
62057;BME280;48016;50.284;18.860;2023-08-20T05:13:09;98559.98;;;21.90;86.56
62057;BME280;48016;50.284;18.860;2023-08-20T05:15:34;98561.30;;;22.00;86.11
62057;BME280;48016;50.284;18.860;2023-08-20T05:18:00;98564.21;;;22.12;86.09
62057;BME280;48016;50.284;18.860;2023-08-20T05:20:26;98566.52;;;22.28;85.78
62057;BME280;48016;50.284;18.860;2023-08-20T05:22:52;98566.42;;;22.47;85.59
62057;BME280;48016;50.284;18.860;2023-08-20T05:25:18;98572.59;;;22.68;84.62
62057;BME280;48016;50.284;18.860;2023-08-20T05:27:44;98572.13;;;22.92;83.96
62057;BME280;48016;50.284;18.860;2023-08-20T05:30:10;98577.88;;;23.22;82.94
62057;BME280;48016;50.284;18.860;2023-08-20T05:32:36;98577.67;;;23.54;82.04
62057;BME280;48016;50.284;18.860;2023-08-20T05:35:02;98582.80;;;23.88;81.78
62057;BME280;48016;50.284;18.860;2023-08-20T05:37:29;98584.63;;;24.22;80.89
62057;BME280;48016;50.284;18.860;2023-08-20T05:39:55;98589.38;;;24.55;79.79
62057;BME280;48016;50.284;18.860;2023-08-20T05:42:21;98591.41;;;24.90;78.84
62057;BME280;48016;50.284;18.860;2023-08-20T05:44:47;98586.44;;;25.20;77.69
62057;BME280;48016;50.284;18.860;2023-08-20T05:47:13;98584.41;;;25.48;76.39
62057;BME280;48016;50.284;18.860;2023-08-20T05:49:39;98582.90;;;25.65;74.74
62057;BME280;48016;50.284;18.860;2023-08-20T05:52:05;98585.25;;;25.69;73.54
62057;BME280;48016;50.284;18.860;2023-08-20T05:54:31;98586.15;;;25.68;73.33
62057;BME280;48016;50.284;18.860;2023-08-20T05:56:58;98588.43;;;25.80;72.63
62057;BME280;48016;50.284;18.860;2023-08-20T05:59:26;98587.59;;;26.04;71.84
62057;BME280;48016;50.284;18.860;2023-08-20T06:01:53;98594.95;;;26.28;71.08
62057;BME280;48016;50.284;18.860;2023-08-20T06:04:21;98597.09;;;26.50;69.97
62057;BME280;48016;50.284;18.860;2023-08-20T06:06:48;98600.81;;;26.64;68.72
62057;BME280;48016;50.284;18.860;2023-08-20T06:09:14;98602.19;;;26.80;68.52
62057;BME280;48016;50.284;18.860;2023-08-20T06:11:40;98597.48;;;27.02;68.74
62057;BME280;48016;50.284;18.860;2023-08-20T06:14:06;98596.80;;;27.22;67.86
62057;BME280;48016;50.284;18.860;2023-08-20T06:16:32;98597.20;;;27.45;67.37
62057;BME280;48016;50.284;18.860;2023-08-20T06:18:58;98596.09;;;27.68;66.39
62057;BME280;48016;50.284;18.860;2023-08-20T06:21:24;98594.80;;;27.86;65.16
62057;BME280;48016;50.284;18.860;2023-08-20T06:23:50;98591.46;;;28.05;63.89
62057;BME280;48016;50.284;18.860;2023-08-20T06:26:15;98588.52;;;28.27;62.81
62057;BME280;48016;50.284;18.860;2023-08-20T06:28:41;98588.61;;;28.47;62.78
62057;BME280;48016;50.284;18.860;2023-08-20T06:31:08;98593.67;;;28.70;62.47
62057;BME280;48016;50.284;18.860;2023-08-20T06:33:35;98590.14;;;28.89;62.54
62057;BME280;48016;50.284;18.860;2023-08-20T06:36:00;98591.71;;;29.05;61.46
62057;BME280;48016;50.284;18.860;2023-08-20T06:38:26;98594.14;;;29.21;60.29
62057;BME280;48016;50.284;18.860;2023-08-20T06:40:52;98593.19;;;29.31;59.56
62057;BME280;48016;50.284;18.860;2023-08-20T06:43:18;98596.67;;;29.45;59.44
62057;BME280;48016;50.284;18.860;2023-08-20T06:45:44;98598.68;;;29.64;58.43
62057;BME280;48016;50.284;18.860;2023-08-20T06:48:10;98594.17;;;29.71;57.81
62057;BME280;48016;50.284;18.860;2023-08-20T06:50:36;98596.65;;;29.72;57.57
62057;BME280;48016;50.284;18.860;2023-08-20T06:53:02;98598.00;;;29.78;57.20
62057;BME280;48016;50.284;18.860;2023-08-20T06:55:28;98599.86;;;29.90;57.03
62057;BME280;48016;50.284;18.860;2023-08-20T06:57:54;98598.48;;;30.06;56.20
62057;BME280;48016;50.284;18.860;2023-08-20T07:00:20;98605.90;;;30.29;56.80
62057;BME280;48016;50.284;18.860;2023-08-20T07:02:46;98602.44;;;30.53;56.74
62057;BME280;48016;50.284;18.860;2023-08-20T07:05:12;98604.09;;;30.78;55.97
62057;BME280;48016;50.284;18.860;2023-08-20T07:07:38;98605.16;;;30.95;54.45
62057;BME280;48016;50.284;18.860;2023-08-20T07:10:05;98606.81;;;31.10;53.20
62057;BME280;48016;50.284;18.860;2023-08-20T07:12:31;98605.27;;;31.22;53.80
62057;BME280;48016;50.284;18.860;2023-08-20T07:14:57;98605.95;;;31.34;54.18
62057;BME280;48016;50.284;18.860;2023-08-20T07:17:22;98606.73;;;31.41;53.64
62057;BME280;48016;50.284;18.860;2023-08-20T07:19:48;98608.39;;;31.50;53.61
62057;BME280;48016;50.284;18.860;2023-08-20T07:22:14;98612.82;;;31.57;53.42
62057;BME280;48016;50.284;18.860;2023-08-20T07:24:40;98613.81;;;31.61;52.14
62057;BME280;48016;50.284;18.860;2023-08-20T07:27:06;98615.42;;;31.62;52.65
62057;BME280;48016;50.284;18.860;2023-08-20T07:29:36;98616.98;;;31.66;52.89
62057;BME280;48016;50.284;18.860;2023-08-20T07:32:02;98618.52;;;31.70;52.54
62057;BME280;48016;50.284;18.860;2023-08-20T07:34:29;98617.95;;;31.81;52.30
62057;BME280;48016;50.284;18.860;2023-08-20T07:36:56;98616.30;;;31.93;51.15
62057;BME280;48016;50.284;18.860;2023-08-20T07:39:22;98617.16;;;32.04;51.72
62057;BME280;48016;50.284;18.860;2023-08-20T07:41:48;98614.02;;;32.14;51.95
62057;BME280;48016;50.284;18.860;2023-08-20T07:44:14;98612.79;;;32.24;51.69
62057;BME280;48016;50.284;18.860;2023-08-20T07:46:40;98616.33;;;32.29;51.34
62057;BME280;48016;50.284;18.860;2023-08-20T07:49:06;98614.20;;;32.35;51.69
62057;BME280;48016;50.284;18.860;2023-08-20T07:51:32;98615.06;;;32.33;50.48
62057;BME280;48016;50.284;18.860;2023-08-20T07:53:58;98617.85;;;32.29;50.62
62057;BME280;48016;50.284;18.860;2023-08-20T07:56:25;98619.30;;;32.32;50.15
62057;BME280;48016;50.284;18.860;2023-08-20T07:58:50;98618.52;;;32.35;50.42
62057;BME280;48016;50.284;18.860;2023-08-20T08:01:16;98619.90;;;32.41;50.59
62057;BME280;48016;50.284;18.860;2023-08-20T08:03:42;98617.95;;;32.46;50.24
62057;BME280;48016;50.284;18.860;2023-08-20T08:06:08;98617.77;;;32.43;49.93
62057;BME280;48016;50.284;18.860;2023-08-20T08:08:34;98617.06;;;32.34;49.83
62057;BME280;48016;50.284;18.860;2023-08-20T08:11:00;98616.20;;;32.34;49.64
62057;BME280;48016;50.284;18.860;2023-08-20T08:13:26;98621.58;;;32.41;49.59
62057;BME280;48016;50.284;18.860;2023-08-20T08:15:52;98619.20;;;32.45;49.66
62057;BME280;48016;50.284;18.860;2023-08-20T08:18:19;98622.30;;;32.42;49.66
62057;BME280;48016;50.284;18.860;2023-08-20T08:20:45;98625.27;;;32.42;49.63
62057;BME280;48016;50.284;18.860;2023-08-20T08:23:11;98623.55;;;32.48;50.11
62057;BME280;48016;50.284;18.860;2023-08-20T08:25:37;98625.84;;;32.58;50.27
62057;BME280;48016;50.284;18.860;2023-08-20T08:28:04;98624.98;;;32.64;49.64
62057;BME280;48016;50.284;18.860;2023-08-20T08:30:30;98626.07;;;32.57;49.09
62057;BME280;48016;50.284;18.860;2023-08-20T08:32:56;98627.97;;;32.52;48.84
62057;BME280;48016;50.284;18.860;2023-08-20T08:35:22;98629.23;;;32.47;48.87
62057;BME280;48016;50.284;18.860;2023-08-20T08:37:48;98626.23;;;32.45;49.00
62057;BME280;48016;50.284;18.860;2023-08-20T08:40:14;98628.29;;;32.41;48.89
62057;BME280;48016;50.284;18.860;2023-08-20T08:42:40;98626.61;;;32.38;48.79
62057;BME280;48016;50.284;18.860;2023-08-20T08:45:07;98625.89;;;32.39;49.07
62057;BME280;48016;50.284;18.860;2023-08-20T08:47:33;98621.26;;;32.40;49.09
62057;BME280;48016;50.284;18.860;2023-08-20T08:50:00;98620.94;;;32.43;48.97
62057;BME280;48016;50.284;18.860;2023-08-20T08:52:28;98625.91;;;32.42;48.99
62057;BME280;48016;50.284;18.860;2023-08-20T08:54:54;98625.08;;;32.37;49.02
62057;BME280;48016;50.284;18.860;2023-08-20T08:57:19;98623.37;;;32.30;48.96
62057;BME280;48016;50.284;18.860;2023-08-20T08:59:45;98623.91;;;32.27;48.43
62057;BME280;48016;50.284;18.860;2023-08-20T09:02:12;98628.30;;;32.23;47.72
62057;BME280;48016;50.284;18.860;2023-08-20T09:04:39;98628.84;;;32.21;47.79
62057;BME280;48016;50.284;18.860;2023-08-20T09:07:11;98630.89;;;32.15;47.45
62057;BME280;48016;50.284;18.860;2023-08-20T09:09:37;98627.26;;;32.10;47.46
62057;BME280;48016;50.284;18.860;2023-08-20T09:12:13;98634.36;;;32.09;47.70
62057;BME280;48016;50.284;18.860;2023-08-20T09:14:44;98632.04;;;32.08;48.57
62057;BME280;48016;50.284;18.860;2023-08-20T09:17:11;98634.80;;;32.14;48.51
62057;BME280;48016;50.284;18.860;2023-08-20T09:19:37;98634.50;;;32.19;47.47
62057;BME280;48016;50.284;18.860;2023-08-20T09:22:03;98633.32;;;32.20;46.94
62057;BME280;48016;50.284;18.860;2023-08-20T09:24:39;98637.15;;;32.20;46.88
62057;BME280;48016;50.284;18.860;2023-08-20T09:27:08;98637.71;;;32.22;46.45
62057;BME280;48016;50.284;18.860;2023-08-20T09:29:51;98636.27;;;32.19;46.24
62057;BME280;48016;50.284;18.860;2023-08-20T09:32:25;98636.73;;;32.17;46.69
62057;BME280;48016;50.284;18.860;2023-08-20T09:34:53;98639.70;;;32.05;46.35
62057;BME280;48016;50.284;18.860;2023-08-20T09:37:21;98639.77;;;32.01;46.23
62057;BME280;48016;50.284;18.860;2023-08-20T09:39:47;98639.60;;;32.02;45.97
62057;BME280;48016;50.284;18.860;2023-08-20T09:42:13;98639.90;;;31.99;45.90
62057;BME280;48016;50.284;18.860;2023-08-20T09:44:44;98641.88;;;32.00;46.02
62057;BME280;48016;50.284;18.860;2023-08-20T09:47:13;98638.13;;;31.98;44.80
62057;BME280;48016;50.284;18.860;2023-08-20T09:49:40;98634.30;;;31.98;44.88
62057;BME280;48016;50.284;18.860;2023-08-20T09:52:09;98635.70;;;32.02;45.85
62057;BME280;48016;50.284;18.860;2023-08-20T09:57:07;98629.61;;;32.15;44.93
62057;BME280;48016;50.284;18.860;2023-08-20T09:59:37;98630.48;;;32.14;44.88
62057;BME280;48016;50.284;18.860;2023-08-20T10:02:04;98631.95;;;32.06;44.95
62057;BME280;48016;50.284;18.860;2023-08-20T10:04:31;98629.64;;;31.94;44.81
62057;BME280;48016;50.284;18.860;2023-08-20T10:06:58;98626.76;;;31.83;44.53
62057;BME280;48016;50.284;18.860;2023-08-20T10:09:25;98624.98;;;31.79;44.21
62057;BME280;48016;50.284;18.860;2023-08-20T10:11:51;98624.70;;;31.75;43.24
62057;BME280;48016;50.284;18.860;2023-08-20T10:14:17;98622.38;;;31.74;44.04
62057;BME280;48016;50.284;18.860;2023-08-20T10:16:43;98622.15;;;31.74;43.70
62057;BME280;48016;50.284;18.860;2023-08-20T10:19:09;98618.64;;;31.65;42.44
62057;BME280;48016;50.284;18.860;2023-08-20T10:21:35;98619.80;;;31.61;42.83
62057;BME280;48016;50.284;18.860;2023-08-20T10:24:05;98617.52;;;31.55;42.60
62057;BME280;48016;50.284;18.860;2023-08-20T10:26:33;98615.98;;;31.43;42.58
62057;BME280;48016;50.284;18.860;2023-08-20T10:29:34;98619.48;;;31.23;42.96
62057;BME280;48016;50.284;18.860;2023-08-20T10:32:08;98618.62;;;31.09;43.95
62057;BME280;48016;50.284;18.860;2023-08-20T10:34:39;98615.58;;;31.09;44.93
62057;BME280;48016;50.284;18.860;2023-08-20T10:37:29;98619.02;;;31.18;44.84
62057;BME280;48016;50.284;18.860;2023-08-20T10:39:55;98617.27;;;31.27;44.86
62057;BME280;48016;50.284;18.860;2023-08-20T10:42:25;98618.04;;;31.32;44.13
62057;BME280;48016;50.284;18.860;2023-08-20T10:45:07;98615.52;;;31.35;43.75
62057;BME280;48016;50.284;18.860;2023-08-20T10:47:47;98613.37;;;31.43;42.55
62057;BME280;48016;50.284;18.860;2023-08-20T10:50:18;98615.77;;;31.55;42.60
62057;BME280;48016;50.284;18.860;2023-08-20T10:52:49;98610.64;;;31.64;42.31
62057;BME280;48016;50.284;18.860;2023-08-20T10:55:16;98609.81;;;31.69;42.33
62057;BME280;48016;50.284;18.860;2023-08-20T10:57:55;98607.02;;;31.70;42.30
62057;BME280;48016;50.284;18.860;2023-08-20T11:00:21;98607.52;;;31.74;42.28
62057;BME280;48016;50.284;18.860;2023-08-20T11:02:49;98612.59;;;31.79;42.65
62057;BME280;48016;50.284;18.860;2023-08-20T11:05:19;98610.38;;;31.83;42.14
62057;BME280;48016;50.284;18.860;2023-08-20T11:07:46;98604.95;;;31.83;41.69
62057;BME280;48016;50.284;18.860;2023-08-20T11:10:16;98597.49;;;31.80;41.47
62057;BME280;48016;50.284;18.860;2023-08-20T11:12:45;98602.10;;;31.75;41.63
62057;BME280;48016;50.284;18.860;2023-08-20T11:15:11;98602.40;;;31.61;41.66
62057;BME280;48016;50.284;18.860;2023-08-20T11:17:49;98600.87;;;31.59;42.06
62057;BME280;48016;50.284;18.860;2023-08-20T11:20:15;98599.95;;;31.62;42.72
62057;BME280;48016;50.284;18.860;2023-08-20T11:22:41;98599.58;;;31.68;42.65
62057;BME280;48016;50.284;18.860;2023-08-20T11:25:11;98593.62;;;31.74;42.24
62057;BME280;48016;50.284;18.860;2023-08-20T11:27:41;98594.63;;;31.81;41.88
62057;BME280;48016;50.284;18.860;2023-08-20T11:30:09;98598.03;;;31.88;41.99
62057;BME280;48016;50.284;18.860;2023-08-20T11:32:38;98596.02;;;31.94;42.22
62057;BME280;48016;50.284;18.860;2023-08-20T11:35:07;98592.27;;;31.97;42.12
62057;BME280;48016;50.284;18.860;2023-08-20T11:37:34;98587.16;;;31.95;42.01
62057;BME280;48016;50.284;18.860;2023-08-20T11:40:00;98586.59;;;31.94;41.99
62057;BME280;48016;50.284;18.860;2023-08-20T11:42:26;98585.40;;;31.93;42.23
62057;BME280;48016;50.284;18.860;2023-08-20T11:44:55;98586.02;;;31.94;42.59
62057;BME280;48016;50.284;18.860;2023-08-20T11:47:22;98590.02;;;31.93;42.81
62057;BME280;48016;50.284;18.860;2023-08-20T11:49:48;98587.23;;;31.94;42.83
62057;BME280;48016;50.284;18.860;2023-08-20T11:52:13;98581.55;;;31.94;42.67
62057;BME280;48016;50.284;18.860;2023-08-20T11:54:41;98582.23;;;31.90;42.42
62057;BME280;48016;50.284;18.860;2023-08-20T11:57:07;98579.85;;;31.79;42.52
62057;BME280;48016;50.284;18.860;2023-08-20T11:59:33;98581.14;;;31.70;42.88
62057;BME280;48016;50.284;18.860;2023-08-20T12:02:01;98581.23;;;31.61;43.01
62057;BME280;48016;50.284;18.860;2023-08-20T12:04:29;98578.92;;;31.39;42.63
62057;BME280;48016;50.284;18.860;2023-08-20T12:07:09;98578.33;;;31.17;42.82
62057;BME280;48016;50.284;18.860;2023-08-20T12:09:35;98576.77;;;31.03;43.06
62057;BME280;48016;50.284;18.860;2023-08-20T12:12:01;98577.14;;;31.00;43.25
62057;BME280;48016;50.284;18.860;2023-08-20T12:14:28;98573.19;;;30.96;43.55
62057;BME280;48016;50.284;18.860;2023-08-20T12:16:54;98573.22;;;30.99;43.95
62057;BME280;48016;50.284;18.860;2023-08-20T12:19:21;98575.66;;;31.03;44.36
62057;BME280;48016;50.284;18.860;2023-08-20T12:21:47;98576.73;;;31.07;44.33
62057;BME280;48016;50.284;18.860;2023-08-20T12:24:14;98577.63;;;31.10;44.52
62057;BME280;48016;50.284;18.860;2023-08-20T12:26:41;98577.33;;;31.14;44.81
62057;BME280;48016;50.284;18.860;2023-08-20T12:29:07;98577.06;;;31.19;44.66
62057;BME280;48016;50.284;18.860;2023-08-20T12:31:34;98581.48;;;31.23;44.25
62057;BME280;48016;50.284;18.860;2023-08-20T12:34:01;98575.88;;;31.21;43.69
62057;BME280;48016;50.284;18.860;2023-08-20T12:36:27;98576.69;;;31.23;44.30
62057;BME280;48016;50.284;18.860;2023-08-20T12:38:55;98572.73;;;31.26;43.97
62057;BME280;48016;50.284;18.860;2023-08-20T12:41:21;98575.88;;;31.22;43.14
62057;BME280;48016;50.284;18.860;2023-08-20T12:43:47;98572.34;;;31.17;42.90
62057;BME280;48016;50.284;18.860;2023-08-20T12:46:13;98576.67;;;31.11;42.88
62057;BME280;48016;50.284;18.860;2023-08-20T12:48:39;98573.14;;;31.07;42.75
62057;BME280;48016;50.284;18.860;2023-08-20T12:51:05;98569.59;;;31.05;42.22
62057;BME280;48016;50.284;18.860;2023-08-20T12:53:32;98571.02;;;30.95;42.71
62057;BME280;48016;50.284;18.860;2023-08-20T12:55:58;98571.17;;;30.86;42.91